createdAt,value
2022-12-31T00:00:47.690Z,103.43
2022-12-31T00:01:49.901Z,113.47
2022-12-31T00:02:52.806Z,104.68
2022-12-31T00:03:54.764Z,108.60
2022-12-31T00:04:57.580Z,109.75
2022-12-31T00:05:59.386Z,106.40
2022-12-31T00:07:02.199Z,110.72
2022-12-31T00:08:04.129Z,103.25
2022-12-31T00:09:08.238Z,113.03
2022-12-31T00:10:10.187Z,120.60
2022-12-31T00:11:13.354Z,116.82
2022-12-31T00:12:17.552Z,107.05
2022-12-31T00:13:19.420Z,116.10
2022-12-31T00:14:22.191Z,111.80
2022-12-31T00:15:23.937Z,104.57
2022-12-31T00:16:29.031Z,111.78
2022-12-31T00:17:31.551Z,108.30
2022-12-31T00:18:34.283Z,105.88
2022-12-31T00:19:36.807Z,112.18
2022-12-31T00:20:41.027Z,111.93
2022-12-31T00:21:44.564Z,106.47
2022-12-31T00:22:46.382Z,101.72
2022-12-31T00:23:49.778Z,108.80
2022-12-31T00:24:51.772Z,109.72
2022-12-31T00:25:54.574Z,103.85
2022-12-31T00:26:57.483Z,106.80
2022-12-31T00:28:00.628Z,97.93
2022-12-31T00:29:04.043Z,106.38
2022-12-31T00:30:07.052Z,106.60
2022-12-31T00:31:11.368Z,112.70
2022-12-31T00:32:13.588Z,98.30
2022-12-31T00:33:16.412Z,99.63
2022-12-31T00:34:19.140Z,98.47
2022-12-31T00:35:20.991Z,99.05
2022-12-31T00:36:25.228Z,106.03
2022-12-31T00:37:27.302Z,96.78
2022-12-31T00:38:30.252Z,101.68
2022-12-31T00:39:33.059Z,147.75
2022-12-31T00:40:34.893Z,102.40
2022-12-31T00:41:37.909Z,136.45
2022-12-31T00:42:39.736Z,123.85
2022-12-31T00:43:44.226Z,120.03
2022-12-31T00:44:46.289Z,176.55
2022-12-31T00:45:49.047Z,182.10
2022-12-31T00:46:50.904Z,132.07
2022-12-31T00:47:53.714Z,131.50
2022-12-31T00:48:55.455Z,119.82
2022-12-31T00:49:58.180Z,121.97
2022-12-31T00:51:01.707Z,132.50
2022-12-31T00:52:04.789Z,139.10
2022-12-31T00:53:06.555Z,145.63
2022-12-31T00:54:10.362Z,125.95
2022-12-31T00:55:12.149Z,131.15
2022-12-31T00:56:16.343Z,128.65
2022-12-31T00:57:18.274Z,140.70
2022-12-31T00:58:21.078Z,137.55
2022-12-31T00:59:25.347Z,128.32
2022-12-31T01:00:27.256Z,130.20
2022-12-31T01:01:31.717Z,139.10
2022-12-31T01:02:33.785Z,158.00
2022-12-31T01:03:36.803Z,158.98
2022-12-31T01:04:38.669Z,144.30
2022-12-31T01:05:41.396Z,147.60
2022-12-31T01:06:43.795Z,148.48
2022-12-31T01:07:46.558Z,145.88
2022-12-31T01:08:49.467Z,141.10
2022-12-31T01:09:54.085Z,136.45
2022-12-31T01:11:14.356Z,141.13
2022-12-31T01:12:17.079Z,136.90
2022-12-31T01:13:18.952Z,143.38
2022-12-31T01:14:21.757Z,145.35
2022-12-31T01:15:24.983Z,150.23
2022-12-31T01:16:29.991Z,147.27
2022-12-31T01:17:31.859Z,149.75
2022-12-31T01:18:34.621Z,167.70
2022-12-31T01:19:37.393Z,165.93
2022-12-31T01:20:41.304Z,166.52
2022-12-31T01:21:45.350Z,146.98
2022-12-31T01:22:47.235Z,160.23
2022-12-31T01:23:49.982Z,153.55
2022-12-31T01:24:51.778Z,147.07
2022-12-31T01:25:54.588Z,155.02
2022-12-31T01:26:58.871Z,146.57
2022-12-31T01:28:01.000Z,140.43
2022-12-31T01:29:04.133Z,141.77
2022-12-31T01:30:06.920Z,146.65
2022-12-31T01:31:12.968Z,136.10
2022-12-31T01:32:14.904Z,134.20
2022-12-31T01:33:17.645Z,144.40
2022-12-31T01:34:20.386Z,153.98
2022-12-31T01:35:22.613Z,154.65
2022-12-31T01:36:27.490Z,152.80
2022-12-31T01:37:29.622Z,141.18
2022-12-31T01:38:33.122Z,161.65
2022-12-31T01:39:35.876Z,167.23
2022-12-31T01:40:38.640Z,165.65
2022-12-31T01:41:44.299Z,165.15
2022-12-31T01:42:53.232Z,152.85
2022-12-31T01:43:58.604Z,164.95
2022-12-31T01:45:01.005Z,150.65
2022-12-31T01:46:03.821Z,163.45
2022-12-31T01:47:12.774Z,181.68
2022-12-31T01:48:18.564Z,153.20
2022-12-31T01:49:22.128Z,167.88
2022-12-31T01:50:27.567Z,158.20
2022-12-31T01:51:31.892Z,149.57
2022-12-31T01:52:37.714Z,165.82
2022-12-31T01:53:40.977Z,171.82
2022-12-31T01:54:46.013Z,158.38
2022-12-31T01:55:50.423Z,166.73
2022-12-31T01:56:54.987Z,170.15
2022-12-31T01:57:59.533Z,159.77
2022-12-31T01:59:02.442Z,163.35
2022-12-31T02:00:06.301Z,167.00
2022-12-31T02:01:10.507Z,172.40
2022-12-31T02:02:14.703Z,187.63
2022-12-31T02:03:17.602Z,161.60
2022-12-31T02:04:21.735Z,179.43
2022-12-31T02:05:28.279Z,177.63
2022-12-31T02:06:34.351Z,172.48
2022-12-31T02:07:37.154Z,163.45
2022-12-31T02:08:42.115Z,138.18
2022-12-31T02:09:45.523Z,173.02
2022-12-31T02:10:47.446Z,146.23
2022-12-31T02:11:50.226Z,168.70
2022-12-31T02:12:52.518Z,151.48
2022-12-31T02:13:58.631Z,177.85
2022-12-31T02:15:00.657Z,160.50
2022-12-31T02:16:08.021Z,164.52
2022-12-31T02:17:14.734Z,169.18
2022-12-31T02:18:25.889Z,164.10
2022-12-31T02:20:02.386Z,157.77
2022-12-31T02:21:23.397Z,146.75
2022-12-31T02:22:36.843Z,149.30
2022-12-31T02:24:07.323Z,152.88
2022-12-31T02:25:31.829Z,142.95
2022-12-31T02:26:57.294Z,135.95
2022-12-31T02:28:07.021Z,124.20
2022-12-31T02:29:57.520Z,135.00
2022-12-31T02:31:02.243Z,129.27
2022-12-31T02:32:06.505Z,134.10
2022-12-31T02:33:13.939Z,153.85
2022-12-31T02:34:19.568Z,146.93
2022-12-31T02:35:26.706Z,140.63
2022-12-31T02:36:31.979Z,162.93
2022-12-31T02:37:36.867Z,154.95
2022-12-31T02:38:41.328Z,149.38
2022-12-31T02:39:44.501Z,146.73
2022-12-31T02:40:47.736Z,136.32
2022-12-31T02:41:51.694Z,113.85
2022-12-31T02:42:55.581Z,123.40
2022-12-31T02:43:58.646Z,88.75
2022-12-31T02:45:00.479Z,79.75
2022-12-31T02:46:10.262Z,74.18
2022-12-31T02:47:21.180Z,70.93
2022-12-31T02:48:36.682Z,76.55
2022-12-31T02:49:45.285Z,82.38
2022-12-31T02:50:56.300Z,81.50
2022-12-31T02:52:01.616Z,75.85
2022-12-31T02:53:17.459Z,85.43
2022-12-31T02:54:28.238Z,78.72
2022-12-31T02:55:36.082Z,85.53
2022-12-31T02:56:41.859Z,81.63
2022-12-31T02:57:49.715Z,83.30
2022-12-31T02:59:25.938Z,84.25
2022-12-31T03:00:48.137Z,76.93
2022-12-31T03:02:14.103Z,75.55
2022-12-31T03:03:17.125Z,81.05
2022-12-31T03:04:34.745Z,91.15
2022-12-31T03:05:40.313Z,86.05
2022-12-31T03:06:42.301Z,84.70
2022-12-31T03:07:45.792Z,91.10
2022-12-31T03:09:14.711Z,83.35
2022-12-31T03:10:18.100Z,80.68
2022-12-31T03:11:35.309Z,82.80
2022-12-31T03:12:47.040Z,87.15
2022-12-31T03:13:49.032Z,89.35
2022-12-31T03:14:52.256Z,100.55
2022-12-31T03:15:55.005Z,108.40
2022-12-31T03:16:58.328Z,114.97
2022-12-31T03:18:04.347Z,120.40
2022-12-31T03:19:24.590Z,137.15
2022-12-31T03:20:48.226Z,123.70
2022-12-31T03:22:08.523Z,112.10
2022-12-31T03:23:12.914Z,130.00
2022-12-31T03:24:33.307Z,124.63
2022-12-31T03:25:35.691Z,99.32
2022-12-31T03:26:37.754Z,111.22
2022-12-31T03:27:40.716Z,111.30
2022-12-31T03:28:47.675Z,105.43
2022-12-31T03:29:49.762Z,134.77
2022-12-31T03:30:54.209Z,107.88
2022-12-31T03:31:56.026Z,114.15
2022-12-31T03:33:00.360Z,106.63
2022-12-31T03:34:02.178Z,109.13
2022-12-31T03:35:05.731Z,109.35
2022-12-31T03:36:10.696Z,111.00
2022-12-31T03:37:12.441Z,124.30
2022-12-31T03:38:15.710Z,126.00
2022-12-31T03:39:17.870Z,135.50
2022-12-31T03:40:22.699Z,125.18
2022-12-31T03:41:25.647Z,121.88
2022-12-31T03:42:28.890Z,116.40
2022-12-31T03:43:31.605Z,116.25
2022-12-31T03:44:33.434Z,125.72
2022-12-31T03:45:36.277Z,126.05
2022-12-31T03:46:38.193Z,122.65
2022-12-31T03:47:41.298Z,120.82
2022-12-31T03:48:44.416Z,121.65
2022-12-31T03:49:47.165Z,113.30
2022-12-31T03:50:50.390Z,102.53
2022-12-31T03:51:52.144Z,101.05
2022-12-31T03:52:55.001Z,99.80
2022-12-31T03:53:56.815Z,100.53
2022-12-31T03:54:59.549Z,104.72
2022-12-31T03:56:01.337Z,87.43
2022-12-31T03:57:04.300Z,76.22
2022-12-31T03:58:07.312Z,75.60
2022-12-31T03:59:09.149Z,78.18
2022-12-31T04:00:14.787Z,84.80
2022-12-31T04:01:16.806Z,85.07
2022-12-31T04:02:24.715Z,83.05
2022-12-31T04:03:30.997Z,81.28
2022-12-31T04:04:34.137Z,82.05
2022-12-31T04:05:36.901Z,87.70
2022-12-31T04:06:38.976Z,94.85
2022-12-31T04:07:42.373Z,76.88
2022-12-31T04:08:44.140Z,93.05
2022-12-31T04:09:46.936Z,83.25
2022-12-31T04:10:49.694Z,87.97
2022-12-31T04:11:51.486Z,86.50
2022-12-31T04:12:54.730Z,78.95
2022-12-31T04:13:59.177Z,81.53
2022-12-31T04:15:01.922Z,82.72
2022-12-31T04:16:03.919Z,78.18
2022-12-31T04:17:07.608Z,72.65
2022-12-31T04:18:09.399Z,73.15
2022-12-31T04:19:12.338Z,65.85
2022-12-31T04:20:17.165Z,70.35
2022-12-31T04:21:18.967Z,66.93
2022-12-31T04:22:21.888Z,63.45
2022-12-31T04:23:23.691Z,62.63
2022-12-31T04:24:26.883Z,64.50
2022-12-31T04:25:29.392Z,60.53
2022-12-31T04:26:34.131Z,56.25
2022-12-31T04:27:36.011Z,55.90
2022-12-31T04:28:38.925Z,53.13
2022-12-31T04:29:40.782Z,48.55
2022-12-31T04:30:46.167Z,48.33
2022-12-31T04:31:47.991Z,53.80
2022-12-31T04:32:50.810Z,46.55
2022-12-31T04:33:52.605Z,45.78
2022-12-31T04:34:56.308Z,40.78
2022-12-31T04:36:02.022Z,40.35
2022-12-31T04:37:05.344Z,45.03
2022-12-31T04:38:07.541Z,48.50
2022-12-31T04:39:10.287Z,37.80
2022-12-31T04:40:12.445Z,38.88
2022-12-31T04:41:17.896Z,36.25
2022-12-31T04:42:20.715Z,33.97
2022-12-31T04:43:22.881Z,38.85
2022-12-31T04:44:29.489Z,40.47
2022-12-31T04:45:31.373Z,38.00
2022-12-31T04:46:34.968Z,39.00
2022-12-31T04:47:37.202Z,41.92
2022-12-31T04:48:40.015Z,41.05
2022-12-31T04:49:44.292Z,40.92
2022-12-31T04:50:46.394Z,35.22
2022-12-31T04:51:50.497Z,39.17
2022-12-31T04:52:52.247Z,40.42
2022-12-31T04:53:55.652Z,40.47
2022-12-31T04:54:57.602Z,38.67
2022-12-31T04:56:00.360Z,41.97
2022-12-31T04:57:21.390Z,37.95
2022-12-31T04:58:23.508Z,43.30
2022-12-31T04:59:26.486Z,37.90
2022-12-31T05:00:28.296Z,40.78
2022-12-31T05:01:31.240Z,39.65
2022-12-31T05:02:33.245Z,36.40
2022-12-31T05:03:36.656Z,35.80
2022-12-31T05:04:38.544Z,40.97
2022-12-31T05:05:42.810Z,41.13
2022-12-31T05:06:45.537Z,39.20
2022-12-31T05:07:48.703Z,37.50
2022-12-31T05:08:51.471Z,38.33
2022-12-31T05:09:53.280Z,39.92
2022-12-31T05:10:56.536Z,41.58
2022-12-31T05:11:58.315Z,44.00
2022-12-31T05:13:01.023Z,37.65
2022-12-31T05:14:04.208Z,43.88
2022-12-31T05:15:07.596Z,41.95
2022-12-31T05:16:10.829Z,43.17
2022-12-31T05:17:12.942Z,39.35
2022-12-31T05:18:16.007Z,39.00
2022-12-31T05:19:18.027Z,36.03
2022-12-31T05:20:20.886Z,41.67
2022-12-31T05:21:23.700Z,42.55
2022-12-31T05:22:31.713Z,40.72
2022-12-31T05:23:36.423Z,34.10
2022-12-31T05:24:38.246Z,36.35
2022-12-31T05:25:41.289Z,33.30
2022-12-31T05:26:43.061Z,35.13
2022-12-31T05:27:45.955Z,37.28
2022-12-31T05:28:49.054Z,33.67
2022-12-31T05:29:50.961Z,33.63
2022-12-31T05:30:53.825Z,39.22
2022-12-31T05:31:55.649Z,33.53
2022-12-31T05:32:58.473Z,34.00
2022-12-31T05:34:01.394Z,33.47
2022-12-31T05:35:04.061Z,27.70
2022-12-31T05:36:07.350Z,34.05
2022-12-31T05:37:09.303Z,33.30
2022-12-31T05:38:12.269Z,35.83
2022-12-31T05:39:15.951Z,29.20
2022-12-31T05:40:18.749Z,30.63
2022-12-31T05:41:21.495Z,30.85
2022-12-31T05:42:23.503Z,31.85
2022-12-31T05:43:26.333Z,32.13
2022-12-31T05:44:28.268Z,30.15
2022-12-31T05:45:31.518Z,36.22
2022-12-31T05:46:33.437Z,32.65
2022-12-31T05:47:36.197Z,32.35
2022-12-31T05:48:39.025Z,29.05
2022-12-31T05:49:40.879Z,32.70
2022-12-31T05:50:43.622Z,30.17
2022-12-31T05:52:04.049Z,32.40
2022-12-31T05:53:06.785Z,38.28
2022-12-31T05:54:08.551Z,39.28
2022-12-31T05:55:14.414Z,34.47
2022-12-31T05:56:17.843Z,37.00
2022-12-31T05:57:20.572Z,38.50
2022-12-31T05:58:22.433Z,34.67
2022-12-31T05:59:25.297Z,28.02
2022-12-31T06:00:28.247Z,30.45
2022-12-31T06:01:31.101Z,33.42
2022-12-31T06:02:33.254Z,29.65
2022-12-31T06:03:36.088Z,29.73
2022-12-31T06:04:37.885Z,32.08
2022-12-31T06:05:42.002Z,45.42
2022-12-31T06:06:43.759Z,39.47
2022-12-31T06:07:47.436Z,39.83
2022-12-31T06:08:49.637Z,35.97
2022-12-31T06:09:52.468Z,40.28
2022-12-31T06:10:55.680Z,43.00
2022-12-31T06:11:58.467Z,39.08
2022-12-31T06:13:01.199Z,33.10
2022-12-31T06:14:03.015Z,36.45
2022-12-31T06:15:07.023Z,36.63
2022-12-31T06:16:12.239Z,40.03
2022-12-31T06:17:15.295Z,37.22
2022-12-31T06:18:18.291Z,31.27
2022-12-31T06:19:20.075Z,37.80
2022-12-31T06:20:23.349Z,26.02
2022-12-31T06:21:25.587Z,31.70
2022-12-31T06:22:28.308Z,27.80
2022-12-31T06:23:30.204Z,30.23
2022-12-31T06:24:33.180Z,25.73
2022-12-31T06:25:37.013Z,28.45
2022-12-31T06:26:40.118Z,26.98
2022-12-31T06:27:43.419Z,25.23
2022-12-31T06:28:45.244Z,25.90
2022-12-31T06:29:51.018Z,25.48
2022-12-31T06:30:59.482Z,27.38
2022-12-31T06:32:02.258Z,26.83
2022-12-31T06:33:04.151Z,25.33
2022-12-31T06:34:07.345Z,25.55
2022-12-31T06:35:09.501Z,26.77
2022-12-31T06:36:14.733Z,28.85
2022-12-31T06:37:17.194Z,26.48
2022-12-31T06:38:19.961Z,25.38
2022-12-31T06:39:21.754Z,28.45
2022-12-31T06:40:24.663Z,24.38
2022-12-31T06:41:26.474Z,26.50
2022-12-31T06:42:31.812Z,24.67
2022-12-31T06:43:34.689Z,30.70
2022-12-31T06:44:37.409Z,27.23
2022-12-31T06:45:39.635Z,23.55
2022-12-31T06:46:42.457Z,26.75
2022-12-31T06:47:44.310Z,31.00
2022-12-31T06:48:47.118Z,31.73
2022-12-31T06:49:50.183Z,33.65
2022-12-31T06:50:52.061Z,32.85
2022-12-31T06:51:54.787Z,31.70
2022-12-31T06:52:56.663Z,38.03
2022-12-31T06:53:59.827Z,36.28
2022-12-31T06:55:03.143Z,39.20
2022-12-31T06:56:06.387Z,36.95
2022-12-31T06:57:10.083Z,35.22
2022-12-31T06:58:14.248Z,36.88
2022-12-31T06:59:26.227Z,36.40
2022-12-31T07:00:28.801Z,36.78
2022-12-31T07:01:50.797Z,42.72
2022-12-31T07:03:16.907Z,49.80
2022-12-31T07:04:56.085Z,39.25
2022-12-31T07:06:03.042Z,43.25
2022-12-31T07:07:08.015Z,41.53
2022-12-31T07:08:19.434Z,41.28
2022-12-31T07:09:25.879Z,44.42
2022-12-31T07:10:38.516Z,37.80
2022-12-31T07:11:46.583Z,42.25
2022-12-31T07:13:03.013Z,41.72
2022-12-31T07:14:15.046Z,40.80
2022-12-31T07:15:20.212Z,43.10
2022-12-31T07:16:33.821Z,41.63
2022-12-31T07:17:43.232Z,44.92
2022-12-31T07:18:49.068Z,44.67
2022-12-31T07:19:58.985Z,50.67
2022-12-31T07:21:01.372Z,42.85
2022-12-31T07:22:04.698Z,43.05
2022-12-31T07:23:07.969Z,47.15
2022-12-31T07:24:12.810Z,45.78
2022-12-31T07:25:15.964Z,38.47
2022-12-31T07:26:22.371Z,40.25
2022-12-31T07:27:44.625Z,43.47
2022-12-31T07:28:54.623Z,45.90
2022-12-31T07:30:03.863Z,44.17
2022-12-31T07:31:09.123Z,39.60
2022-12-31T07:32:18.938Z,39.15
2022-12-31T07:33:36.040Z,42.42
2022-12-31T07:34:42.345Z,41.22
2022-12-31T07:35:51.196Z,39.15
2022-12-31T07:37:00.955Z,31.20
2022-12-31T07:38:09.225Z,28.10
2022-12-31T07:39:14.539Z,27.23
2022-12-31T07:40:22.150Z,26.38
2022-12-31T07:41:37.816Z,21.70
2022-12-31T07:42:58.221Z,27.95
2022-12-31T07:44:04.626Z,22.77
2022-12-31T07:45:14.829Z,20.08
2022-12-31T07:46:21.425Z,21.73
2022-12-31T07:47:25.903Z,23.45
2022-12-31T07:48:29.405Z,20.02
2022-12-31T07:49:33.564Z,22.30
2022-12-31T07:50:37.512Z,21.92
2022-12-31T07:51:41.283Z,22.88
2022-12-31T07:52:43.708Z,21.48
2022-12-31T07:53:46.867Z,20.00
2022-12-31T07:54:48.739Z,20.52
2022-12-31T07:55:55.850Z,23.00
2022-12-31T07:56:58.829Z,19.35
2022-12-31T07:58:04.939Z,20.50
2022-12-31T07:59:18.436Z,20.98
2022-12-31T08:00:26.434Z,21.55
2022-12-31T08:01:42.430Z,19.05
2022-12-31T08:03:04.962Z,21.05
2022-12-31T08:04:10.419Z,18.05
2022-12-31T08:05:19.824Z,19.58
2022-12-31T08:06:29.330Z,20.17
2022-12-31T08:07:35.983Z,22.92
2022-12-31T08:08:51.300Z,23.40
2022-12-31T08:10:05.110Z,21.60
2022-12-31T08:11:14.862Z,23.20
2022-12-31T08:12:19.034Z,22.95
2022-12-31T08:13:21.007Z,20.48
2022-12-31T08:14:24.935Z,22.77
2022-12-31T08:15:30.692Z,19.80
2022-12-31T08:16:34.195Z,19.98
2022-12-31T08:17:36.305Z,19.30
2022-12-31T08:18:39.736Z,18.08
2022-12-31T08:19:43.047Z,18.70
2022-12-31T08:20:52.694Z,18.48
2022-12-31T08:22:05.427Z,17.50
2022-12-31T08:23:20.398Z,15.23
2022-12-31T08:24:27.650Z,18.77
2022-12-31T08:25:37.270Z,19.33
2022-12-31T08:26:52.837Z,22.52
2022-12-31T08:28:03.735Z,22.92
2022-12-31T08:29:16.490Z,20.88
2022-12-31T08:30:20.122Z,19.85
2022-12-31T08:31:49.662Z,19.95
2022-12-31T08:33:10.170Z,18.77
2022-12-31T08:34:17.713Z,17.77
2022-12-31T08:35:33.001Z,17.80
2022-12-31T08:36:45.674Z,15.15
2022-12-31T08:37:52.637Z,13.93
2022-12-31T08:38:57.297Z,13.55
2022-12-31T08:40:11.536Z,13.68
2022-12-31T08:41:18.888Z,14.27
2022-12-31T08:42:28.868Z,14.38
2022-12-31T08:43:39.814Z,15.68
2022-12-31T08:44:49.415Z,12.52
2022-12-31T08:45:52.416Z,11.88
2022-12-31T08:47:01.221Z,10.90
2022-12-31T08:48:05.394Z,11.27
2022-12-31T08:49:09.880Z,11.70
2022-12-31T08:50:14.669Z,9.95
2022-12-31T08:51:20.689Z,10.30
2022-12-31T08:52:25.129Z,13.23
2022-12-31T08:53:28.332Z,11.40
2022-12-31T08:54:31.772Z,12.00
2022-12-31T08:55:34.399Z,9.52
2022-12-31T08:56:48.845Z,10.48
2022-12-31T08:57:59.129Z,10.82
2022-12-31T08:59:13.620Z,13.65
2022-12-31T09:00:18.267Z,12.65
2022-12-31T09:01:24.353Z,10.88
2022-12-31T09:02:49.384Z,9.70
2022-12-31T09:04:02.544Z,11.68
2022-12-31T09:05:10.938Z,10.25
2022-12-31T09:06:20.257Z,12.20
2022-12-31T09:07:31.000Z,10.00
2022-12-31T09:08:39.779Z,12.02
2022-12-31T09:09:49.303Z,12.30
2022-12-31T09:10:55.244Z,12.32
2022-12-31T09:11:59.856Z,13.77
2022-12-31T09:13:07.698Z,12.90
2022-12-31T09:14:19.764Z,10.60
2022-12-31T09:15:27.231Z,9.60
2022-12-31T09:16:35.053Z,13.35
2022-12-31T09:17:46.054Z,12.02
2022-12-31T09:18:48.879Z,9.90
2022-12-31T09:19:51.063Z,10.70
2022-12-31T09:20:54.524Z,10.85
2022-12-31T09:21:57.691Z,11.77
2022-12-31T09:23:03.173Z,10.43
2022-12-31T09:24:09.542Z,8.27
2022-12-31T09:25:15.702Z,10.82
2022-12-31T09:26:33.301Z,10.23
2022-12-31T09:27:40.072Z,7.93
2022-12-31T09:28:50.631Z,9.07
2022-12-31T09:29:56.239Z,11.00
2022-12-31T09:31:05.767Z,9.95
2022-12-31T09:32:14.369Z,8.38
2022-12-31T09:33:30.958Z,7.65
2022-12-31T09:34:37.418Z,8.77
2022-12-31T09:35:45.255Z,7.25
2022-12-31T09:36:52.177Z,6.63
2022-12-31T09:37:58.171Z,6.32
2022-12-31T09:39:06.377Z,5.85
2022-12-31T09:40:24.635Z,6.95
2022-12-31T09:41:43.109Z,8.38
2022-12-31T09:42:59.471Z,5.72
2022-12-31T09:44:41.073Z,7.03
2022-12-31T09:46:26.010Z,5.93
2022-12-31T09:48:10.220Z,5.30
2022-12-31T09:49:41.765Z,5.35
2022-12-31T09:51:08.465Z,4.45
2022-12-31T09:52:16.377Z,4.53
2022-12-31T09:53:40.735Z,4.78
2022-12-31T09:54:53.893Z,4.13
2022-12-31T09:55:59.436Z,3.80
2022-12-31T09:57:19.168Z,5.03
2022-12-31T09:58:34.702Z,4.88
2022-12-31T09:59:42.035Z,4.13
2022-12-31T10:00:49.489Z,3.83
2022-12-31T10:01:58.127Z,2.63
2022-12-31T10:03:20.287Z,4.53
2022-12-31T10:04:47.806Z,5.40
2022-12-31T10:05:59.796Z,3.17
2022-12-31T10:07:13.365Z,4.38
2022-12-31T10:08:31.010Z,5.53
2022-12-31T10:09:43.829Z,13.20
2022-12-31T10:10:50.939Z,2.92
2022-12-31T10:12:04.783Z,2.45
2022-12-31T10:13:28.036Z,3.92
2022-12-31T10:14:47.114Z,3.13
2022-12-31T10:16:09.835Z,4.10
2022-12-31T10:17:22.546Z,7.10
2022-12-31T10:18:56.972Z,5.65
2022-12-31T10:20:33.729Z,2.75
2022-12-31T10:21:47.617Z,2.60
2022-12-31T10:23:35.627Z,3.30
2022-12-31T10:24:57.619Z,3.20
2022-12-31T10:26:11.857Z,4.35
2022-12-31T10:27:35.570Z,3.83
2022-12-31T10:28:45.220Z,3.95
2022-12-31T10:29:54.858Z,5.10
2022-12-31T10:31:06.623Z,3.63
2022-12-31T10:32:17.773Z,3.13
2022-12-31T10:33:34.013Z,4.63
2022-12-31T10:34:48.784Z,3.65
2022-12-31T10:35:55.771Z,3.28
2022-12-31T10:37:05.702Z,6.95
2022-12-31T10:38:19.428Z,4.55
2022-12-31T10:39:32.342Z,3.17
2022-12-31T10:40:52.861Z,4.60
2022-12-31T10:42:12.082Z,3.08
2022-12-31T10:43:44.077Z,2.65
2022-12-31T10:45:05.938Z,2.85
2022-12-31T10:46:29.010Z,4.10
2022-12-31T10:48:00.575Z,2.83
2022-12-31T10:49:28.580Z,3.15
2022-12-31T10:50:50.183Z,2.92
2022-12-31T10:52:28.425Z,3.45
2022-12-31T10:54:15.769Z,3.22
2022-12-31T10:55:40.759Z,3.55
2022-12-31T10:57:16.881Z,4.57
2022-12-31T10:58:58.119Z,4.18
2022-12-31T11:00:17.183Z,3.38
2022-12-31T11:01:20.557Z,3.35
2022-12-31T11:02:55.791Z,4.15
2022-12-31T11:04:34.575Z,3.78
2022-12-31T11:06:09.901Z,3.85
2022-12-31T11:07:36.610Z,3.58
2022-12-31T11:09:17.810Z,4.47
2022-12-31T11:10:48.764Z,7.03
2022-12-31T11:11:54.749Z,4.68
2022-12-31T11:13:16.598Z,5.32
2022-12-31T11:14:43.743Z,5.20
2022-12-31T11:16:02.830Z,5.28
2022-12-31T11:17:24.423Z,6.47
2022-12-31T11:18:31.788Z,5.40
2022-12-31T11:19:38.432Z,5.50
2022-12-31T11:20:55.911Z,4.70
2022-12-31T11:22:21.643Z,3.92
2022-12-31T11:23:35.047Z,4.45
2022-12-31T11:24:48.262Z,6.10
2022-12-31T11:25:57.904Z,4.07
2022-12-31T11:27:11.843Z,4.75
2022-12-31T11:28:42.534Z,5.63
2022-12-31T11:29:57.848Z,5.85
2022-12-31T11:31:13.467Z,4.72
2022-12-31T11:32:27.329Z,6.55
2022-12-31T11:33:39.237Z,4.78
2022-12-31T11:35:14.933Z,5.63
2022-12-31T11:36:21.475Z,4.30
2022-12-31T11:37:34.793Z,3.95
2022-12-31T11:38:39.800Z,4.93
2022-12-31T11:39:50.027Z,4.22
2022-12-31T11:41:00.133Z,4.28
2022-12-31T11:42:07.927Z,5.32
2022-12-31T11:43:23.482Z,4.05
2022-12-31T11:44:35.576Z,3.97
2022-12-31T11:45:55.615Z,3.25
2022-12-31T11:47:08.912Z,3.13
2022-12-31T11:48:32.831Z,4.45
2022-12-31T11:49:50.273Z,4.55
2022-12-31T11:50:58.998Z,4.88
2022-12-31T11:52:31.864Z,4.10
2022-12-31T11:54:04.229Z,3.60
2022-12-31T11:55:28.605Z,5.00
2022-12-31T11:56:35.047Z,4.15
2022-12-31T11:57:39.865Z,3.65
2022-12-31T11:58:47.243Z,4.07
2022-12-31T11:59:50.512Z,3.72
2022-12-31T12:00:56.148Z,3.03
2022-12-31T12:02:03.230Z,3.65
2022-12-31T12:03:08.122Z,3.35
2022-12-31T12:04:12.157Z,3.75
2022-12-31T12:05:16.031Z,3.65
2022-12-31T12:06:22.169Z,2.75
2022-12-31T12:07:24.236Z,3.22
2022-12-31T12:08:27.526Z,3.92
2022-12-31T12:09:32.585Z,6.32
2022-12-31T12:10:43.710Z,4.88
2022-12-31T12:11:46.442Z,3.53
2022-12-31T12:12:49.229Z,4.65
2022-12-31T12:13:52.298Z,3.45
2022-12-31T12:14:55.619Z,5.97
2022-12-31T12:15:59.863Z,4.93
2022-12-31T12:17:05.482Z,9.20
2022-12-31T12:18:10.524Z,4.70
2022-12-31T12:19:18.846Z,4.68
2022-12-31T12:20:26.797Z,4.40
2022-12-31T12:21:30.090Z,4.15
2022-12-31T12:22:32.647Z,4.95
2022-12-31T12:23:35.401Z,5.63
2022-12-31T12:24:37.544Z,5.20
2022-12-31T12:25:44.679Z,5.18
2022-12-31T12:26:49.724Z,4.32
2022-12-31T12:27:52.872Z,4.68
2022-12-31T12:28:54.666Z,3.78
2022-12-31T12:29:57.603Z,3.20
2022-12-31T12:31:02.235Z,3.67
2022-12-31T12:32:08.167Z,5.53
2022-12-31T12:33:16.827Z,3.85
2022-12-31T12:34:24.844Z,3.67
2022-12-31T12:35:30.445Z,5.13
2022-12-31T12:36:32.965Z,4.40
2022-12-31T12:37:36.972Z,3.83
2022-12-31T12:38:39.812Z,3.45
2022-12-31T12:39:42.575Z,5.75
2022-12-31T12:40:57.370Z,4.07
2022-12-31T12:42:02.305Z,4.28
2022-12-31T12:43:05.159Z,3.63
2022-12-31T12:44:09.329Z,4.80
2022-12-31T12:45:16.374Z,3.83
2022-12-31T12:46:22.329Z,5.65
2022-12-31T12:47:26.976Z,4.72
2022-12-31T12:48:37.934Z,6.15
2022-12-31T12:49:42.795Z,5.57
2022-12-31T12:50:47.123Z,10.07
2022-12-31T12:52:04.431Z,4.70
2022-12-31T12:53:27.712Z,3.90
2022-12-31T12:54:37.832Z,3.55
2022-12-31T12:55:43.453Z,4.03
2022-12-31T12:56:53.366Z,5.40
2022-12-31T12:58:01.160Z,4.75
2022-12-31T12:59:27.646Z,3.38
2022-12-31T13:00:34.999Z,4.10
2022-12-31T13:01:42.066Z,3.63
2022-12-31T13:02:56.099Z,3.85
2022-12-31T13:04:34.635Z,3.47
2022-12-31T13:05:48.089Z,3.70
2022-12-31T13:07:11.707Z,3.38
2022-12-31T13:08:25.247Z,4.20
2022-12-31T13:09:40.219Z,4.30
2022-12-31T13:11:02.397Z,4.57
2022-12-31T13:12:15.392Z,5.90
2022-12-31T13:13:25.200Z,4.72
2022-12-31T13:14:31.361Z,4.78
2022-12-31T13:15:38.972Z,5.32
2022-12-31T13:16:43.685Z,4.53
2022-12-31T13:18:01.280Z,4.53
2022-12-31T13:19:09.103Z,5.38
2022-12-31T13:20:16.403Z,5.80
2022-12-31T13:21:36.131Z,5.35
2022-12-31T13:22:41.604Z,3.90
2022-12-31T13:23:48.940Z,4.35
2022-12-31T13:24:58.724Z,5.50
2022-12-31T13:26:06.809Z,5.10
2022-12-31T13:27:14.297Z,4.45
2022-12-31T13:28:17.718Z,17.33
2022-12-31T13:29:23.471Z,4.55
2022-12-31T13:30:29.558Z,4.10
2022-12-31T13:31:35.214Z,4.75
2022-12-31T13:32:40.678Z,3.15
2022-12-31T13:33:44.615Z,6.95
2022-12-31T13:34:49.545Z,5.20
2022-12-31T13:35:53.443Z,5.40
2022-12-31T13:36:58.129Z,3.22
2022-12-31T13:38:05.848Z,4.40
2022-12-31T13:39:14.005Z,4.18
2022-12-31T13:40:19.820Z,3.58
2022-12-31T13:41:25.219Z,5.47
2022-12-31T13:42:35.659Z,4.93
2022-12-31T13:43:47.238Z,3.90
2022-12-31T13:44:56.454Z,4.13
2022-12-31T13:46:04.515Z,5.32
2022-12-31T13:47:12.760Z,5.30
2022-12-31T13:48:18.333Z,3.97
2022-12-31T13:49:24.002Z,4.53
2022-12-31T13:50:30.780Z,5.20
2022-12-31T13:51:41.824Z,5.63
2022-12-31T13:52:46.946Z,5.78
2022-12-31T13:53:53.589Z,5.38
2022-12-31T13:55:00.830Z,4.07
2022-12-31T13:56:06.091Z,9.30
2022-12-31T13:57:13.893Z,7.20
2022-12-31T13:58:21.670Z,3.72
2022-12-31T13:59:29.168Z,6.35
2022-12-31T14:00:35.764Z,5.90
2022-12-31T14:01:42.057Z,4.82
2022-12-31T14:02:50.022Z,4.60
2022-12-31T14:03:59.750Z,4.45
2022-12-31T14:05:05.028Z,6.22
2022-12-31T14:06:12.354Z,6.40
2022-12-31T14:07:18.112Z,7.30
2022-12-31T14:08:20.901Z,9.10
2022-12-31T14:09:24.434Z,7.70
2022-12-31T14:10:37.064Z,5.15
2022-12-31T14:11:50.147Z,5.72
2022-12-31T14:12:54.783Z,4.50
2022-12-31T14:14:07.913Z,7.72
2022-12-31T14:15:15.577Z,5.32
2022-12-31T14:16:24.125Z,18.10
2022-12-31T14:17:32.914Z,8.00
2022-12-31T14:18:41.036Z,9.18
2022-12-31T14:19:58.075Z,6.15
2022-12-31T14:21:07.682Z,6.85
2022-12-31T14:22:15.918Z,6.80
2022-12-31T14:23:24.739Z,5.35
2022-12-31T14:24:35.908Z,4.95
2022-12-31T14:25:40.766Z,7.75
2022-12-31T14:26:45.145Z,5.65
2022-12-31T14:27:47.557Z,5.03
2022-12-31T14:28:55.897Z,4.65
2022-12-31T14:30:02.060Z,6.63
2022-12-31T14:31:12.014Z,4.68
2022-12-31T14:32:23.404Z,5.70
2022-12-31T14:33:40.776Z,6.22
2022-12-31T14:34:51.657Z,6.35
2022-12-31T14:36:14.095Z,10.32
2022-12-31T14:37:18.544Z,6.45
2022-12-31T14:38:28.855Z,7.55
2022-12-31T14:39:43.392Z,6.72